Time,TemperatureF,DewpointF,PressureIn,WindDirection,WindDirectionDegrees,WindSpeedMPH,WindSpeedGustMPH,Humidity,HourlyPrecipIn,Conditions,Clouds,dailyrainin,SolarRadiationWatts/m^2,SoftwareType,DateUTC
2013-06-09 00:03:00,52.0,51.0,-100.00,SSW,196,0.0,2.0,97,0.00,,,0.03,0.000000,,2013-06-09 04:03:00,
2013-06-09 00:33:00,50.0,49.0,-100.00,SSW,208,0.0,0.0,98,0.00,,,0.03,0.000000,,2013-06-09 04:33:00,
2013-06-09 00:43:00,50.0,49.0,-100.00,SSW,208,0.0,0.0,98,0.00,,,0.03,0.000000,,2013-06-09 04:43:00,
2013-06-09 00:53:00,50.0,49.0,-100.00,SSW,208,0.0,0.0,98,0.00,,,0.03,0.000000,,2013-06-09 04:53:00,
2013-06-09 01:02:00,50.0,49.0,-100.00,SSW,208,0.0,0.0,98,0.00,,,0.03,0.000000,,2013-06-09 05:02:00,
2013-06-09 01:32:00,50.0,49.0,-100.00,South,171,0.0,2.0,98,0.00,,,0.02,0.000000,,2013-06-09 05:32:00,
2013-06-09 01:42:00,50.0,49.0,-100.00,South,171,0.0,2.0,98,0.00,,,0.02,0.000000,,2013-06-09 05:42:00,
2013-06-09 01:52:00,50.0,49.0,-100.00,South,171,0.0,2.0,98,0.00,,,0.02,0.000000,,2013-06-09 05:52:00,
2013-06-09 02:02:00,50.0,49.0,-100.00,South,171,0.0,2.0,98,0.00,,,0.02,0.000000,,2013-06-09 06:02:00,
2013-06-09 02:32:00,51.0,51.0,-100.00,South,191,0.0,0.0,99,0.00,,,0.02,0.000000,,2013-06-09 06:32:00,
2013-06-09 02:42:00,51.0,51.0,-100.00,South,191,0.0,0.0,99,0.00,,,0.02,0.000000,,2013-06-09 06:42:00,
2013-06-09 02:52:00,51.0,51.0,-100.00,South,191,0.0,0.0,99,0.00,,,0.02,0.000000,,2013-06-09 06:52:00,
2013-06-09 03:02:00,51.0,51.0,-100.00,South,191,0.0,0.0,99,0.00,,,0.02,0.000000,,2013-06-09 07:02:00,
2013-06-09 03:32:00,50.0,50.0,-100.00,NNW,342,0.0,2.0,99,0.00,,,0.01,0.000000,,2013-06-09 07:32:00,
2013-06-09 03:42:00,50.0,50.0,-100.00,NNW,342,0.0,2.0,99,0.00,,,0.01,0.000000,,2013-06-09 07:42:00,
2013-06-09 03:53:00,50.0,50.0,-100.00,NNW,342,0.0,2.0,99,0.00,,,0.01,0.000000,,2013-06-09 07:53:00,
2013-06-09 04:02:00,50.0,50.0,-100.00,NNW,342,0.0,2.0,99,0.00,,,0.01,0.000000,,2013-06-09 08:02:00,
2013-06-09 04:32:00,50.0,50.0,-100.00,SSE,155,0.0,0.0,99,0.00,,,0.01,0.000000,,2013-06-09 08:32:00,
2013-06-09 04:42:00,50.0,50.0,-100.00,SSE,155,0.0,0.0,99,0.00,,,0.01,0.000000,,2013-06-09 08:42:00,
2013-06-09 04:53:00,50.0,50.0,-100.00,SSE,155,0.0,0.0,99,0.00,,,0.01,0.000000,,2013-06-09 08:53:00,
2013-06-09 05:02:00,50.0,50.0,-100.00,SSE,155,0.0,0.0,99,0.00,,,0.01,0.000000,,2013-06-09 09:02:00,
2013-06-09 05:33:00,48.0,48.0,-100.00,South,173,0.0,0.0,99,0.00,,,0.01,0.000000,,2013-06-09 09:33:00,
2013-06-09 05:43:00,48.0,48.0,-100.00,South,173,0.0,0.0,99,0.00,,,0.01,0.000000,,2013-06-09 09:43:00,
2013-06-09 05:53:00,48.0,48.0,-100.00,South,173,0.0,0.0,99,0.00,,,0.01,0.000000,,2013-06-09 09:53:00,
2013-06-09 06:03:00,48.0,48.0,-100.00,South,173,0.0,0.0,99,0.00,,,0.01,0.000000,,2013-06-09 10:03:00,
2013-06-09 06:32:00,48.0,48.0,-100.00,SSW,200,1.0,3.0,99,0.00,,,0.01,3.000000,,2013-06-09 10:32:00,
2013-06-09 06:43:00,48.0,48.0,-100.00,SSW,200,1.0,3.0,99,0.00,,,0.01,3.000000,,2013-06-09 10:43:00,
2013-06-09 06:52:00,48.0,48.0,-100.00,SSW,200,1.0,3.0,99,0.00,,,0.01,3.000000,,2013-06-09 10:52:00,
2013-06-09 07:02:00,48.0,48.0,-100.00,SSW,200,1.0,3.0,99,0.00,,,0.01,3.000000,,2013-06-09 11:02:00,
2013-06-09 07:32:00,49.0,49.0,-100.00,South,173,0.0,2.0,99,0.00,,,0.00,42.000000,,2013-06-09 11:32:00,
2013-06-09 07:42:00,49.0,49.0,-100.00,South,173,0.0,2.0,99,0.00,,,0.00,42.000000,,2013-06-09 11:42:00,
2013-06-09 07:53:00,49.0,49.0,-100.00,South,173,0.0,2.0,99,0.00,,,0.00,42.000000,,2013-06-09 11:53:00,
2013-06-09 08:02:00,49.0,49.0,-100.00,South,173,0.0,2.0,99,0.00,,,0.00,42.000000,,2013-06-09 12:02:00,
2013-06-09 08:32:00,51.0,50.0,-100.00,SSE,166,0.0,3.0,98,0.00,,,0.00,108.000000,,2013-06-09 12:32:00,
2013-06-09 08:42:00,51.0,50.0,-100.00,SSE,166,0.0,3.0,98,0.00,,,0.00,108.000000,,2013-06-09 12:42:00,
2013-06-09 08:53:00,51.0,50.0,-100.00,SSE,166,0.0,3.0,98,0.00,,,0.00,108.000000,,2013-06-09 12:53:00,
2013-06-09 09:02:00,51.0,50.0,-100.00,SSE,166,0.0,3.0,98,0.00,,,0.00,108.000000,,2013-06-09 13:02:00,
2013-06-09 09:32:00,57.0,56.0,-100.00,SW,226,0.0,5.0,96,0.00,,,0.00,314.000000,,2013-06-09 13:32:00,
2013-06-09 09:42:00,57.0,56.0,-100.00,SW,226,0.0,5.0,96,0.00,,,0.00,314.000000,,2013-06-09 13:42:00,
2013-06-09 09:52:00,57.0,56.0,-100.00,SW,226,0.0,5.0,96,0.00,,,0.00,314.000000,,2013-06-09 13:52:00,
2013-06-09 10:02:00,57.0,56.0,-100.00,SW,226,0.0,5.0,96,0.00,,,0.00,314.000000,,2013-06-09 14:02:00,
2013-06-09 10:32:00,66.0,57.0,-100.00,SW,223,1.0,4.0,74,0.00,,,0.00,683.000000,,2013-06-09 14:32:00,
2013-06-09 10:43:00,66.0,57.0,-100.00,SW,223,1.0,4.0,74,0.00,,,0.00,683.000000,,2013-06-09 14:43:00,
2013-06-09 10:52:00,66.0,57.0,-100.00,SW,223,1.0,4.0,74,0.00,,,0.00,683.000000,,2013-06-09 14:52:00,
2013-06-09 11:02:00,66.0,57.0,-100.00,SW,223,1.0,4.0,74,0.00,,,0.00,683.000000,,2013-06-09 15:02:00,
2013-06-09 11:33:00,71.0,54.0,-100.00,South,188,3.0,6.0,55,0.00,,,0.00,858.000000,,2013-06-09 15:33:00,
2013-06-09 11:44:00,71.0,54.0,-100.00,South,188,3.0,6.0,55,0.00,,,0.00,858.000000,,2013-06-09 15:44:00,
2013-06-09 11:53:00,71.0,54.0,-100.00,South,188,3.0,6.0,55,0.00,,,0.00,858.000000,,2013-06-09 15:53:00,
2013-06-09 12:03:00,71.0,54.0,-100.00,South,188,3.0,6.0,55,0.00,,,0.00,858.000000,,2013-06-09 16:03:00,
2013-06-09 12:33:00,72.0,50.0,-100.00,NNW,332,4.0,7.0,46,0.00,,,0.00,987.000000,,2013-06-09 16:33:00,
2013-06-09 12:43:00,72.0,50.0,-100.00,NNW,332,4.0,7.0,46,0.00,,,0.00,987.000000,,2013-06-09 16:43:00,
2013-06-09 12:53:00,72.0,50.0,-100.00,NNW,332,4.0,7.0,46,0.00,,,0.00,987.000000,,2013-06-09 16:53:00,
2013-06-09 13:03:00,72.0,50.0,-100.00,NNW,332,4.0,7.0,46,0.00,,,0.00,987.000000,,2013-06-09 17:03:00,
2013-06-09 13:32:00,73.0,50.0,-100.00,NW,310,3.0,9.0,44,0.00,,,0.00,1002.000000,,2013-06-09 17:32:00,
2013-06-09 13:42:00,73.0,50.0,-100.00,NW,310,3.0,9.0,44,0.00,,,0.00,1002.000000,,2013-06-09 17:42:00,
2013-06-09 13:52:00,73.0,50.0,-100.00,NW,310,3.0,9.0,44,0.00,,,0.00,1002.000000,,2013-06-09 17:52:00,
2013-06-09 14:02:00,73.0,50.0,-100.00,NW,310,3.0,9.0,44,0.00,,,0.00,1002.000000,,2013-06-09 18:02:00,
2013-06-09 14:33:00,77.0,49.0,-100.00,South,179,3.0,8.0,38,0.00,,,0.00,1039.000000,,2013-06-09 18:33:00,
2013-06-09 14:42:00,77.0,49.0,-100.00,South,179,3.0,8.0,38,0.00,,,0.00,1039.000000,,2013-06-09 18:42:00,
2013-06-09 14:52:00,77.0,49.0,-100.00,South,179,3.0,8.0,38,0.00,,,0.00,1039.000000,,2013-06-09 18:52:00,
2013-06-09 15:02:00,77.0,49.0,-100.00,South,179,3.0,8.0,38,0.00,,,0.00,1039.000000,,2013-06-09 19:02:00,
2013-06-09 15:32:00,79.0,52.0,-100.00,SSE,158,2.0,5.0,39,0.00,,,0.00,747.000000,,2013-06-09 19:32:00,
2013-06-09 15:43:00,79.0,52.0,-100.00,SSE,158,2.0,5.0,39,0.00,,,0.00,747.000000,,2013-06-09 19:43:00,
2013-06-09 15:52:00,79.0,52.0,-100.00,SSE,158,2.0,5.0,39,0.00,,,0.00,747.000000,,2013-06-09 19:52:00,
2013-06-09 16:03:00,79.0,52.0,-100.00,SSE,158,2.0,5.0,39,0.00,,,0.00,747.000000,,2013-06-09 20:03:00,
2013-06-09 16:32:00,74.0,58.0,-100.00,ENE,78,1.0,6.0,58,0.00,,,0.00,487.000000,,2013-06-09 20:32:00,
2013-06-09 17:33:00,77.0,55.0,-100.00,NNW,341,3.0,6.0,46,0.00,,,0.00,482.000000,,2013-06-09 21:33:00,
2013-06-09 17:44:00,77.0,55.0,-100.00,NNW,341,3.0,6.0,46,0.00,,,0.00,482.000000,,2013-06-09 21:44:00,
2013-06-09 17:53:00,77.0,55.0,-100.00,NNW,341,3.0,6.0,46,0.00,,,0.00,482.000000,,2013-06-09 21:53:00,
2013-06-09 18:02:00,77.0,55.0,-100.00,NNW,341,3.0,6.0,46,0.00,,,0.00,482.000000,,2013-06-09 22:02:00,
2013-06-09 19:32:00,71.0,59.0,-100.00,NE,39,2.0,3.0,65,-99.99,,,0.00,223.000000,,2013-06-09 23:32:00,
2013-06-09 19:43:00,71.0,59.0,-100.00,NE,39,2.0,3.0,65,-99.99,,,0.00,223.000000,,2013-06-09 23:43:00,
2013-06-09 19:52:00,71.0,59.0,-100.00,NE,39,2.0,3.0,65,-99.99,,,0.00,223.000000,,2013-06-09 23:52:00,
2013-06-09 20:02:00,71.0,59.0,-100.00,NE,39,2.0,3.0,65,-99.99,,,0.00,223.000000,,2013-06-10 00:02:00,
2013-06-09 20:32:00,69.0,58.0,-100.00,SW,215,0.0,2.0,67,0.00,,,0.00,105.000000,,2013-06-10 00:32:00,
2013-06-09 20:42:00,69.0,58.0,-100.00,SW,215,0.0,2.0,67,0.00,,,0.00,105.000000,,2013-06-10 00:42:00,
2013-06-09 20:52:00,69.0,58.0,-100.00,SW,215,0.0,2.0,67,0.00,,,0.00,105.000000,,2013-06-10 00:52:00,
2013-06-09 21:03:00,69.0,58.0,-100.00,SW,215,0.0,2.0,67,0.00,,,0.00,105.000000,,2013-06-10 01:03:00,
2013-06-09 21:32:00,62.0,56.0,-100.00,South,190,0.0,0.0,81,0.00,,,0.00,14.000000,,2013-06-10 01:32:00,
2013-06-09 22:02:00,62.0,56.0,-100.00,South,190,0.0,0.0,81,0.00,,,0.00,14.000000,,2013-06-10 02:02:00,
2013-06-09 22:32:00,61.0,56.0,-100.00,NW,321,1.0,3.0,83,0.00,,,0.00,0.000000,,2013-06-10 02:32:00,
2013-06-09 22:42:00,61.0,56.0,-100.00,NW,321,1.0,3.0,83,0.00,,,0.00,0.000000,,2013-06-10 02:42:00,
2013-06-09 22:52:00,61.0,56.0,-100.00,NW,321,1.0,3.0,83,0.00,,,0.00,0.000000,,2013-06-10 02:52:00,
2013-06-09 23:02:00,61.0,56.0,-100.00,NW,321,1.0,3.0,83,0.00,,,0.00,0.000000,,2013-06-10 03:02:00,
2013-06-09 23:33:00,64.0,55.0,-100.00,South,180,1.0,5.0,73,0.00,,,0.00,0.000000,,2013-06-10 03:33:00,
2013-06-09 23:43:00,64.0,55.0,-100.00,South,180,1.0,5.0,73,0.00,,,0.00,0.000000,,2013-06-10 03:43:00,
2013-06-09 23:53:00,64.0,55.0,-100.00,South,180,1.0,5.0,73,0.00,,,0.00,0.000000,,2013-06-10 03:53:00,